createdAt,value
2023-04-15T00:02:24.594Z,8.16
2023-04-15T00:04:52.529Z,8.07
2023-04-15T00:07:20.674Z,8.10
2023-04-15T00:09:48.437Z,8.17
2023-04-15T00:12:16.083Z,8.12
2023-04-15T00:14:44.926Z,8.16
2023-04-15T00:17:12.702Z,8.21
2023-04-15T00:19:41.880Z,8.23
2023-04-15T00:22:09.748Z,8.15
2023-04-15T00:24:37.488Z,8.22
2023-04-15T00:27:05.496Z,8.15
2023-04-15T00:29:33.415Z,8.23
2023-04-15T00:32:01.486Z,8.20
2023-04-15T00:34:29.897Z,8.19
2023-04-15T00:36:59.887Z,8.17
2023-04-15T00:39:28.121Z,8.06
2023-04-15T00:41:57.369Z,8.26
2023-04-15T00:44:25.369Z,8.34
2023-04-15T00:46:53.209Z,8.33
2023-04-15T00:49:21.691Z,8.62
2023-04-15T00:51:49.574Z,8.66
2023-04-15T00:54:18.838Z,8.45
2023-04-15T00:56:46.865Z,8.43
2023-04-15T00:59:15.616Z,8.25
2023-04-15T01:01:45.244Z,8.29
2023-04-15T01:04:15.207Z,8.19
2023-04-15T01:06:43.045Z,8.18
2023-04-15T01:09:12.033Z,8.07
2023-04-15T01:11:41.915Z,8.04
2023-04-15T01:14:11.152Z,7.98
2023-04-15T01:16:41.120Z,7.93
2023-04-15T01:19:11.991Z,7.92
2023-04-15T01:21:40.881Z,7.82
2023-04-15T01:24:10.932Z,7.84
2023-04-15T01:26:42.361Z,7.81
2023-04-15T01:29:10.805Z,7.76
2023-04-15T01:31:38.670Z,7.73
2023-04-15T01:34:06.898Z,7.57
2023-04-15T01:36:35.514Z,7.58
2023-04-15T01:39:03.398Z,7.54
2023-04-15T01:41:31.569Z,7.46
2023-04-15T01:44:00.857Z,7.44
2023-04-15T01:46:29.014Z,7.42
2023-04-15T01:48:57.125Z,7.41
2023-04-15T01:51:27.222Z,7.40
2023-04-15T01:53:56.853Z,7.33
2023-04-15T01:56:25.343Z,7.36
2023-04-15T01:58:53.681Z,7.43
2023-04-15T02:01:23.618Z,7.37
2023-04-15T02:03:52.212Z,7.39
2023-04-15T02:06:20.385Z,7.41
2023-04-15T02:08:49.356Z,7.28
2023-04-15T02:11:17.103Z,7.29
2023-04-15T02:13:44.917Z,7.33
2023-04-15T02:16:19.637Z,7.32
2023-04-15T02:18:48.836Z,7.31
2023-04-15T02:21:16.570Z,7.32
2023-04-15T02:23:45.209Z,7.27
2023-04-15T02:26:14.332Z,7.21
2023-04-15T02:28:42.431Z,7.39
2023-04-15T02:31:10.409Z,7.38
2023-04-15T02:33:38.093Z,7.35
2023-04-15T02:36:08.251Z,7.37
2023-04-15T02:38:36.275Z,7.30
2023-04-15T02:41:03.991Z,7.20
2023-04-15T02:43:32.147Z,7.25
2023-04-15T02:46:01.023Z,7.27
2023-04-15T02:48:28.834Z,7.23
2023-04-15T02:51:16.774Z,7.27
2023-04-15T02:53:44.744Z,7.31
2023-04-15T02:56:12.819Z,7.34
2023-04-15T02:58:40.941Z,7.32
2023-04-15T03:01:09.529Z,7.40
2023-04-15T03:03:37.817Z,7.51
2023-04-15T03:06:05.801Z,7.45
2023-04-15T03:08:35.025Z,7.40
2023-04-15T03:11:02.706Z,7.35
2023-04-15T03:13:30.586Z,7.36
2023-04-15T03:16:00.479Z,7.38
2023-04-15T03:18:29.211Z,7.32
2023-04-15T03:21:02.092Z,7.29
2023-04-15T03:23:32.878Z,7.22
2023-04-15T03:26:04.796Z,7.22
2023-04-15T03:28:34.324Z,7.23
2023-04-15T03:31:03.311Z,7.16
2023-04-15T03:33:31.386Z,7.17
2023-04-15T03:35:59.285Z,7.16
2023-04-15T03:38:27.721Z,7.16
2023-04-15T03:40:55.672Z,7.23
2023-04-15T03:43:25.181Z,7.13
2023-04-15T03:45:53.104Z,7.16
2023-04-15T03:48:21.251Z,7.12
2023-04-15T03:50:49.272Z,7.06
2023-04-15T03:53:17.248Z,7.04
2023-04-15T03:55:44.910Z,7.06
2023-04-15T03:58:12.800Z,7.02
2023-04-15T04:00:42.528Z,7.04
2023-04-15T04:03:10.403Z,6.94
2023-04-15T04:05:41.376Z,6.99
2023-04-15T04:08:09.604Z,6.95
2023-04-15T04:10:37.463Z,6.99
2023-04-15T04:13:05.225Z,7.01
2023-04-15T04:15:33.075Z,7.18
2023-04-15T04:18:02.390Z,7.11
2023-04-15T04:20:31.938Z,7.10
2023-04-15T04:22:59.940Z,6.98
2023-04-15T04:25:28.165Z,6.97
2023-04-15T04:27:56.044Z,6.92
2023-04-15T04:30:23.772Z,7.05
2023-04-15T04:32:51.786Z,6.98
2023-04-15T04:35:21.814Z,7.05
2023-04-15T04:37:49.765Z,7.01
2023-04-15T04:40:17.593Z,7.06
2023-04-15T04:42:46.072Z,7.01
2023-04-15T04:45:14.128Z,6.99
2023-04-15T04:47:42.064Z,6.93
2023-04-15T04:50:10.595Z,6.90
2023-04-15T04:52:40.190Z,6.91
2023-04-15T04:55:08.569Z,6.88
2023-04-15T04:57:37.675Z,6.89
2023-04-15T05:00:06.684Z,6.84
2023-04-15T05:02:34.710Z,6.81
2023-04-15T05:05:02.606Z,6.92
2023-04-15T05:07:30.567Z,6.90
2023-04-15T05:09:59.692Z,6.97
2023-04-15T05:12:27.684Z,6.97
2023-04-15T05:14:55.488Z,6.99
2023-04-15T05:17:23.385Z,7.08
2023-04-15T05:19:51.338Z,7.06
2023-04-15T05:22:19.149Z,7.00
2023-04-15T05:24:46.959Z,7.03
2023-04-15T05:27:16.435Z,7.11
2023-04-15T05:29:44.172Z,7.22
2023-04-15T05:32:12.042Z,7.14
2023-04-15T05:34:39.871Z,7.35
2023-04-15T05:37:07.829Z,7.37
2023-04-15T05:39:35.708Z,7.41
2023-04-15T05:42:03.550Z,7.46
2023-04-15T05:44:33.056Z,7.63
2023-04-15T05:47:00.964Z,7.77
2023-04-15T05:49:28.701Z,7.92
2023-04-15T05:51:56.984Z,8.18
2023-04-15T05:54:25.100Z,7.98
2023-04-15T05:56:52.871Z,7.94
2023-04-15T05:59:20.607Z,8.15
2023-04-15T06:01:49.980Z,8.33
2023-04-15T06:04:17.892Z,8.26
2023-04-15T06:06:46.174Z,8.62
2023-04-15T06:09:14.300Z,8.44
2023-04-15T06:11:42.472Z,8.50
2023-04-15T06:14:10.648Z,8.56
2023-04-15T06:16:38.523Z,8.51
2023-04-15T06:19:07.714Z,8.60
2023-04-15T06:21:35.715Z,8.46
2023-04-15T06:24:03.792Z,8.53
2023-04-15T06:26:31.608Z,8.61
2023-04-15T06:28:59.559Z,8.57
2023-04-15T06:31:27.793Z,8.77
2023-04-15T06:33:55.633Z,8.80
2023-04-15T06:36:25.130Z,8.80
2023-04-15T06:38:52.881Z,9.09
2023-04-15T06:41:20.851Z,9.02
2023-04-15T06:43:48.695Z,9.02
2023-04-15T06:46:16.573Z,9.07
2023-04-15T06:48:47.708Z,9.10
2023-04-15T06:51:15.685Z,9.11
2023-04-15T06:53:44.879Z,9.64
2023-04-15T06:56:12.829Z,9.84
2023-04-15T06:58:40.671Z,9.77
2023-04-15T07:01:08.846Z,9.94
2023-04-15T07:03:36.597Z,9.87
2023-04-15T07:06:06.448Z,9.88
2023-04-15T07:08:34.513Z,9.91
2023-04-15T07:11:04.040Z,9.85
2023-04-15T07:13:33.324Z,10.20
2023-04-15T07:16:01.279Z,10.03
2023-04-15T07:18:29.016Z,10.53
2023-04-15T07:20:56.766Z,10.60
2023-04-15T07:23:24.488Z,10.58
2023-04-15T07:25:53.025Z,10.48
2023-04-15T07:28:22.419Z,10.63
2023-04-15T07:30:50.373Z,10.51
2023-04-15T07:33:18.209Z,10.65
2023-04-15T07:35:46.840Z,10.34
2023-04-15T07:38:14.572Z,10.64
2023-04-15T07:40:42.396Z,10.91
2023-04-15T07:43:10.781Z,10.94
2023-04-15T07:45:40.277Z,10.92
2023-04-15T07:48:08.365Z,10.79
2023-04-15T07:50:36.087Z,10.68
2023-04-15T07:53:03.839Z,10.86
2023-04-15T07:55:31.619Z,10.83
2023-04-15T07:57:59.311Z,10.79
2023-04-15T08:00:28.144Z,10.69
2023-04-15T08:02:59.497Z,10.66
2023-04-15T08:05:27.781Z,10.81
2023-04-15T08:07:55.596Z,11.03
2023-04-15T08:10:23.947Z,11.11
2023-04-15T08:12:54.308Z,11.19
2023-04-15T08:15:22.224Z,11.44
2023-04-15T08:17:49.991Z,11.59
2023-04-15T08:20:19.625Z,11.63
2023-04-15T08:22:51.773Z,11.38
2023-04-15T08:25:19.963Z,11.41
2023-04-15T08:27:47.878Z,11.82
2023-04-15T08:30:15.968Z,11.69
2023-04-15T08:32:44.088Z,11.64
2023-04-15T08:35:12.141Z,11.16
2023-04-15T08:37:41.378Z,11.56
2023-04-15T08:40:10.822Z,11.71
2023-04-15T08:42:43.675Z,11.81
2023-04-15T08:45:13.292Z,11.75
2023-04-15T08:47:41.939Z,11.41
2023-04-15T08:50:11.763Z,11.57
2023-04-15T08:52:41.536Z,11.78
2023-04-15T08:55:10.523Z,11.94
2023-04-15T08:57:39.815Z,11.95
2023-04-15T09:00:09.450Z,11.84
2023-04-15T09:02:37.755Z,12.09
2023-04-15T09:05:06.967Z,12.09
2023-04-15T09:07:35.371Z,12.32
2023-04-15T09:10:05.397Z,12.36
2023-04-15T09:12:35.932Z,12.59
2023-04-15T09:15:03.873Z,12.81
2023-04-15T09:17:34.505Z,12.80
2023-04-15T09:20:10.019Z,12.80
2023-04-15T09:22:38.493Z,12.97
2023-04-15T09:25:27.761Z,12.94
2023-04-15T09:27:57.481Z,12.66
2023-04-15T09:30:25.290Z,12.87
2023-04-15T09:32:54.100Z,12.64
2023-04-15T09:35:23.278Z,12.89
2023-04-15T09:37:51.955Z,12.78
2023-04-15T09:40:34.079Z,13.06
2023-04-15T09:43:02.997Z,12.72
2023-04-15T09:45:31.124Z,12.82
2023-04-15T09:47:59.493Z,12.59
2023-04-15T09:50:29.347Z,12.65
2023-04-15T09:52:57.402Z,12.65
2023-04-15T09:55:25.150Z,12.50
2023-04-15T09:57:55.049Z,12.62
2023-04-15T10:00:22.744Z,12.97
2023-04-15T10:02:50.874Z,12.93
2023-04-15T10:05:18.663Z,13.02
2023-04-15T10:07:48.242Z,12.80
2023-04-15T10:10:16.723Z,12.73
2023-04-15T10:12:45.493Z,12.61
2023-04-15T10:15:17.840Z,12.63
2023-04-15T10:17:46.781Z,12.61
2023-04-15T10:20:16.102Z,12.48
2023-04-15T10:22:47.808Z,12.51
2023-04-15T10:25:16.656Z,12.21
2023-04-15T10:27:44.653Z,12.24
2023-04-15T10:30:13.327Z,12.37
2023-04-15T10:32:43.169Z,12.44
2023-04-15T10:35:12.196Z,12.17
2023-04-15T10:37:40.069Z,12.53
2023-04-15T10:40:28.018Z,12.34
2023-04-15T10:42:57.006Z,12.32
2023-04-15T10:45:27.338Z,12.19
2023-04-15T10:47:59.630Z,12.16
2023-04-15T10:50:29.900Z,12.41
2023-04-15T10:52:58.247Z,12.47
2023-04-15T10:55:27.577Z,12.39
2023-04-15T10:57:59.267Z,11.86
2023-04-15T11:00:29.569Z,11.79
2023-04-15T11:03:00.141Z,11.76
2023-04-15T11:05:53.181Z,12.03
2023-04-15T11:08:22.049Z,11.91
2023-04-15T11:10:54.935Z,12.35
2023-04-15T11:13:31.452Z,12.28
2023-04-15T11:16:04.635Z,12.10
2023-04-15T11:18:35.786Z,12.20
2023-04-15T11:21:06.197Z,12.32
2023-04-15T11:23:39.960Z,12.15
2023-04-15T11:26:11.878Z,12.42
2023-04-15T11:28:41.357Z,12.26
2023-04-15T11:31:11.953Z,12.37
2023-04-15T11:33:47.691Z,12.23
2023-04-15T11:36:15.595Z,12.21
2023-04-15T11:38:48.281Z,12.25
2023-04-15T11:41:16.833Z,12.17
2023-04-15T11:43:44.744Z,12.50
2023-04-15T11:46:12.671Z,12.26
2023-04-15T11:48:44.892Z,12.30
2023-04-15T11:51:13.526Z,12.39
2023-04-15T11:53:45.885Z,12.43
2023-04-15T11:56:19.058Z,12.37
2023-04-15T11:58:47.282Z,12.14
2023-04-15T12:01:15.360Z,12.28
2023-04-15T12:03:47.000Z,12.46
2023-04-15T12:06:19.168Z,12.45
2023-04-15T12:09:01.464Z,12.23
2023-04-15T12:11:31.470Z,12.41
2023-04-15T12:14:03.853Z,12.28
2023-04-15T12:16:32.110Z,12.14
2023-04-15T12:19:02.318Z,11.97
2023-04-15T12:21:36.249Z,11.78
2023-04-15T12:24:07.479Z,11.82
2023-04-15T12:26:37.938Z,12.03
2023-04-15T12:29:07.986Z,12.19
2023-04-15T12:31:37.141Z,12.02
2023-04-15T12:34:09.858Z,12.16
2023-04-15T12:36:37.913Z,12.30
2023-04-15T12:39:06.122Z,12.51
2023-04-15T12:41:34.624Z,12.41
2023-04-15T12:44:03.068Z,12.22
2023-04-15T12:46:31.426Z,12.28
2023-04-15T12:48:59.609Z,12.46
2023-04-15T12:51:29.387Z,12.62
2023-04-15T12:53:58.244Z,12.41
2023-04-15T12:56:26.865Z,12.28
2023-04-15T12:58:54.553Z,12.44
2023-04-15T13:01:22.541Z,12.42
2023-04-15T13:03:51.582Z,12.51
2023-04-15T13:06:19.503Z,12.53
2023-04-15T13:08:57.967Z,12.43
2023-04-15T13:11:27.222Z,12.49
2023-04-15T13:13:55.473Z,12.19
2023-04-15T13:16:23.772Z,12.23
2023-04-15T13:18:51.724Z,11.89
2023-04-15T13:21:19.872Z,12.02
2023-04-15T13:23:49.858Z,11.86
2023-04-15T13:26:18.802Z,11.90
2023-04-15T13:28:47.161Z,11.96
2023-04-15T13:31:15.046Z,11.96
2023-04-15T13:33:42.820Z,11.86
2023-04-15T13:36:10.553Z,11.91
2023-04-15T13:38:38.384Z,11.83
2023-04-15T13:41:07.723Z,11.87
2023-04-15T13:43:35.671Z,11.99
2023-04-15T13:46:03.964Z,11.78
2023-04-15T13:48:32.121Z,11.87
2023-04-15T13:51:00.099Z,11.88
2023-04-15T13:53:38.292Z,11.69
2023-04-15T13:56:09.369Z,11.71
2023-04-15T13:58:38.267Z,11.84
2023-04-15T14:01:07.549Z,11.73
2023-04-15T14:03:35.868Z,11.96
2023-04-15T14:06:04.134Z,11.87
2023-04-15T14:08:32.145Z,11.78
2023-04-15T14:10:59.985Z,11.68
2023-04-15T14:13:29.389Z,11.72
2023-04-15T14:15:57.808Z,11.44
2023-04-15T14:18:25.576Z,11.55
2023-04-15T14:20:53.316Z,11.72
2023-04-15T14:23:21.037Z,11.70
2023-04-15T14:25:48.936Z,11.58
2023-04-15T14:28:17.178Z,11.42
2023-04-15T14:30:46.489Z,11.46
2023-04-15T14:33:14.185Z,11.67
2023-04-15T14:35:42.193Z,11.63
2023-04-15T14:38:11.616Z,11.55
2023-04-15T14:40:39.499Z,11.64
2023-04-15T14:43:07.266Z,11.53
2023-04-15T14:45:36.818Z,11.66
2023-04-15T14:48:09.710Z,11.57
2023-04-15T14:50:37.402Z,11.43
2023-04-15T14:53:05.194Z,11.38
2023-04-15T14:55:33.103Z,11.71
2023-04-15T14:58:02.487Z,11.57
2023-04-15T15:00:30.305Z,11.40
2023-04-15T15:02:58.075Z,11.22
2023-04-15T15:05:27.487Z,11.32
2023-04-15T15:07:55.211Z,11.40
2023-04-15T15:10:46.676Z,11.43
2023-04-15T15:13:12.084Z,11.17
2023-04-15T15:15:40.293Z,11.40
2023-04-15T15:18:08.202Z,11.45
2023-04-15T15:20:37.800Z,11.33
2023-04-15T15:23:05.509Z,11.37
2023-04-15T15:25:33.209Z,11.13
2023-04-15T15:28:01.319Z,11.21
2023-04-15T15:30:29.050Z,11.19
2023-04-15T15:32:56.997Z,11.35
2023-04-15T15:35:26.026Z,11.39
2023-04-15T15:37:55.926Z,11.15
2023-04-15T15:40:23.878Z,11.32
2023-04-15T15:42:51.720Z,11.43
2023-04-15T15:45:19.629Z,11.14
2023-04-15T15:47:47.336Z,11.13
2023-04-15T15:50:15.502Z,11.25
2023-04-15T15:52:43.630Z,10.99
2023-04-15T15:55:12.857Z,10.94
2023-04-15T15:57:40.759Z,10.69
2023-04-15T16:00:12.007Z,10.92
2023-04-15T16:05:12.378Z,10.89
2023-04-15T16:07:40.121Z,10.86
2023-04-15T16:10:08.835Z,10.61
2023-04-15T16:12:37.936Z,11.00
2023-04-15T16:15:06.534Z,10.51
2023-04-15T16:17:34.378Z,10.50
2023-04-15T16:20:05.286Z,10.63
2023-04-15T16:22:34.203Z,10.63
2023-04-15T16:25:02.369Z,10.33
2023-04-15T16:27:30.339Z,10.51
2023-04-15T16:29:59.579Z,10.69
2023-04-15T16:32:27.758Z,10.58
2023-04-15T16:34:55.524Z,10.57
2023-04-15T16:37:23.534Z,10.41
2023-04-15T16:39:51.334Z,10.51
2023-04-15T16:42:19.106Z,10.45
2023-04-15T16:44:46.870Z,10.36
2023-04-15T16:47:15.975Z,10.35
2023-04-15T16:49:43.730Z,10.44
2023-04-15T16:52:11.543Z,10.39
2023-04-15T16:54:41.460Z,10.49
2023-04-15T16:57:09.287Z,10.43
2023-04-15T16:59:38.058Z,10.35
2023-04-15T17:02:06.039Z,10.53
2023-04-15T17:04:35.853Z,10.49
2023-04-15T17:07:04.040Z,10.51
2023-04-15T17:09:31.947Z,10.61
2023-04-15T17:11:59.731Z,10.28
2023-04-15T17:14:28.615Z,10.08
2023-04-15T17:16:56.713Z,10.08
2023-04-15T17:19:24.510Z,10.04
2023-04-15T17:21:55.090Z,10.14
2023-04-15T17:24:22.975Z,10.17
2023-04-15T17:26:50.970Z,10.00
2023-04-15T17:29:18.574Z,10.37
2023-04-15T17:31:46.246Z,10.20
2023-04-15T17:34:15.950Z,9.99
2023-04-15T17:36:43.971Z,10.11
2023-04-15T17:39:14.045Z,10.39
2023-04-15T17:41:41.746Z,10.23
2023-04-15T17:44:09.472Z,10.31
2023-04-15T17:46:37.215Z,10.26
2023-04-15T17:49:05.919Z,10.09
2023-04-15T17:51:33.849Z,10.00
2023-04-15T17:54:07.861Z,9.99
2023-04-15T17:56:37.260Z,10.02
2023-04-15T17:59:05.182Z,10.05
2023-04-15T18:01:33.081Z,10.14
2023-04-15T18:04:00.903Z,10.17
2023-04-15T18:06:28.657Z,9.95
2023-04-15T18:08:56.417Z,9.78
2023-04-15T18:11:24.145Z,9.67
2023-04-15T18:13:53.183Z,9.71
2023-04-15T18:16:21.210Z,9.74
2023-04-15T18:18:48.898Z,9.63
2023-04-15T18:21:16.598Z,9.42
2023-04-15T18:23:44.276Z,9.59
2023-04-15T18:26:12.049Z,9.46
2023-04-15T18:28:40.104Z,9.56
2023-04-15T18:31:09.225Z,9.47
2023-04-15T18:33:37.435Z,9.44
2023-04-15T18:36:05.370Z,9.52
2023-04-15T18:38:33.067Z,9.27
2023-04-15T18:41:01.278Z,9.61
2023-04-15T18:43:29.080Z,9.45
2023-04-15T18:45:56.812Z,9.52
2023-04-15T18:48:26.849Z,9.37
2023-04-15T18:50:54.537Z,9.54
2023-04-15T18:53:22.490Z,9.56
2023-04-15T18:55:50.147Z,9.48
2023-04-15T18:58:18.028Z,9.56
2023-04-15T19:00:45.838Z,9.44
2023-04-15T19:03:13.981Z,9.51
2023-04-15T19:05:43.342Z,9.76
2023-04-15T19:08:11.729Z,9.49
2023-04-15T19:10:39.847Z,9.30
2023-04-15T19:13:07.639Z,9.11
2023-04-15T19:15:35.527Z,9.26
2023-04-15T19:18:05.353Z,9.16
2023-04-15T19:20:36.608Z,8.96
2023-04-15T19:23:07.903Z,9.15
2023-04-15T19:25:35.612Z,9.27
2023-04-15T19:28:03.370Z,9.09
2023-04-15T19:30:32.443Z,9.21
2023-04-15T19:33:00.312Z,9.17
2023-04-15T19:35:28.231Z,9.33
2023-04-15T19:37:56.096Z,9.06
2023-04-15T19:40:25.844Z,9.12
2023-04-15T19:42:53.765Z,8.97
2023-04-15T19:45:21.483Z,9.07
2023-04-15T19:47:49.326Z,9.15
2023-04-15T19:50:17.842Z,9.10
2023-04-15T19:52:45.568Z,9.07
2023-04-15T19:55:13.598Z,9.08
2023-04-15T19:57:42.749Z,8.95
2023-04-15T20:00:11.302Z,8.98
2023-04-15T20:02:39.146Z,9.11
2023-04-15T20:05:09.795Z,9.04
2023-04-15T20:07:37.939Z,9.01
2023-04-15T20:10:10.676Z,9.10
2023-04-15T20:12:51.184Z,9.03
2023-04-15T20:15:22.532Z,8.92
2023-04-15T20:17:50.677Z,8.93
2023-04-15T20:20:18.505Z,8.85
2023-04-15T20:22:46.407Z,8.92
2023-04-15T20:25:14.194Z,8.78
2023-04-15T20:27:43.316Z,9.11
2023-04-15T20:30:11.833Z,9.15
2023-04-15T20:32:39.690Z,8.94
2023-04-15T20:35:08.295Z,8.77
2023-04-15T20:37:36.284Z,8.91
2023-04-15T20:40:04.155Z,9.10
2023-04-15T20:42:33.767Z,8.79
2023-04-15T20:45:03.215Z,8.91
2023-04-15T20:47:31.245Z,9.01
2023-04-15T20:49:59.104Z,8.97
2023-04-15T20:52:26.887Z,9.01
2023-04-15T20:54:54.729Z,8.79
2023-04-15T20:57:24.498Z,9.07
2023-04-15T20:59:52.750Z,9.22
2023-04-15T21:02:24.407Z,8.87
2023-04-15T21:04:52.420Z,8.97
2023-04-15T21:07:20.462Z,9.04
2023-04-15T21:09:49.191Z,9.18
2023-04-15T21:12:16.917Z,8.96
2023-04-15T21:14:44.664Z,8.89
2023-04-15T21:17:12.700Z,8.84
2023-04-15T21:19:41.885Z,9.02
2023-04-15T21:22:09.740Z,9.06
2023-04-15T21:24:37.654Z,8.88
2023-04-15T21:27:05.891Z,8.98
2023-04-15T21:29:33.842Z,9.07
2023-04-15T21:32:02.093Z,9.16
2023-04-15T21:34:30.044Z,9.02
2023-04-15T21:36:59.151Z,9.22
2023-04-15T21:39:27.230Z,9.08
2023-04-15T21:41:55.005Z,9.02
2023-04-15T21:44:22.809Z,9.00
2023-04-15T21:46:51.033Z,9.20
2023-04-15T21:49:20.340Z,9.07
2023-04-15T21:51:48.572Z,8.77
2023-04-15T21:54:17.814Z,8.92
2023-04-15T21:56:46.031Z,8.85
2023-04-15T21:59:13.698Z,8.93
2023-04-15T22:01:41.636Z,8.82
2023-04-15T22:04:10.911Z,8.83
2023-04-15T22:06:39.419Z,8.95
2023-04-15T22:09:07.173Z,8.83
2023-04-15T22:11:36.780Z,8.89
2023-04-15T22:14:05.300Z,8.96
2023-04-15T22:16:33.103Z,8.84
2023-04-15T22:19:02.557Z,8.79
2023-04-15T22:21:30.310Z,8.83
2023-04-15T22:24:38.053Z,8.89
2023-04-15T22:26:47.227Z,9.18
2023-04-15T22:29:14.976Z,9.04
2023-04-15T22:31:43.819Z,8.97
2023-04-15T22:34:11.595Z,9.18
2023-04-15T22:36:39.347Z,9.27
2023-04-15T22:39:07.190Z,9.41
2023-04-15T22:41:35.268Z,9.11
2023-04-15T22:44:04.524Z,9.05
2023-04-15T22:46:32.379Z,9.17
2023-04-15T22:49:00.281Z,9.20
2023-04-15T22:51:29.068Z,9.14
2023-04-15T22:53:57.183Z,9.06
2023-04-15T22:56:25.044Z,8.96
2023-04-15T22:58:52.982Z,9.03
2023-04-15T23:01:22.185Z,8.99
2023-04-15T23:03:56.700Z,8.96
2023-04-15T23:06:34.208Z,9.19
2023-04-15T23:09:01.960Z,9.07
2023-04-15T23:11:29.773Z,8.98
2023-04-15T23:13:57.615Z,9.11
2023-04-15T23:16:26.921Z,8.98
2023-04-15T23:18:55.161Z,8.90
2023-04-15T23:21:24.801Z,9.01
2023-04-15T23:23:53.871Z,9.01
2023-04-15T23:26:21.580Z,9.36
2023-04-15T23:28:49.403Z,9.03
2023-04-15T23:31:17.134Z,9.04
2023-04-15T23:33:46.295Z,9.10
2023-04-15T23:36:14.265Z,9.17
2023-04-15T23:38:42.926Z,9.04
2023-04-15T23:41:11.930Z,9.32
2023-04-15T23:43:39.795Z,8.98
2023-04-15T23:46:07.535Z,9.24
2023-04-15T23:48:35.434Z,9.18
2023-04-15T23:51:04.961Z,8.97
2023-04-15T23:53:32.944Z,8.98
2023-04-15T23:56:01.377Z,9.26
2023-04-15T23:58:29.193Z,9.16
